Time;durP1;ratioP1;P1;durP2;ratioP2;P2;SDS_P1;SDS_P2;PMS_P1;PMS_P2;Temp;Humidity;BMP_temperature;BMP_pressure;BME280_temperature;BME280_humidity;BME280_pressure;Samples;Min_cycle;Max_cycle;Signal;HPM_P1;HPM_P2
2021/11/14 00:00:04;;;;;;;;;;;;;;;;;;5029648;28;19913;-81
2021/11/14 00:02:29;;;;;;;;;;;;;;;;;;5057050;28;20308;-81
2021/11/14 00:04:55;;;;;;;;;;;;;;;;;;5040026;28;19920;-81
2021/11/14 00:07:20;;;;;;;;;;;;;;;;;;5020752;28;19967;-81
2021/11/14 00:09:45;;;;;;;;;;;;;;;;;;5037050;28;20371;-82
2021/11/14 00:12:11;;;;;;;;;;;;;;;;;;5036700;28;19958;-82
2021/11/14 00:14:36;;;;;;;;;;;;;;;;;;5036770;28;19916;-82
2021/11/14 00:17:02;;;;;;;;;;;;;;;;;;5020166;28;19917;-81
2021/11/14 00:19:27;;;;;;;;;;;;;;;;;;5053515;28;20015;-82
2021/11/14 00:21:52;;;;;;;;;;;;;;;;;;5020253;28;19987;-82
2021/11/14 00:24:18;;;;;;;;;;;;;;;;;;5036199;28;19927;-81
2021/11/14 00:26:43;;;;;;;;;;;;;;;;;;5019883;28;19917;-81
2021/11/14 00:29:08;;;;;;;;;;;;;;;;;;5036414;28;19916;-81
2021/11/14 00:31:34;;;;;;;;;;;;;;;;;;5020348;28;19913;-82
2021/11/14 00:33:59;;;;;;;;;;;;;;;;;;5036530;28;20003;-82
2021/11/14 00:36:25;;;;;;;;;;;;;;;;;;5036528;28;19913;-82
2021/11/14 00:38:51;;;;;;;;;;;;;;;;;;5020073;28;19913;-82
2021/11/14 00:41:16;;;;;;;;;;;;;;;;;;5036435;28;19919;-82
2021/11/14 00:43:42;;;;;;;;;;;;;;;;;;5036013;28;19936;-82
2021/11/14 00:46:07;;;;;;;;;;;;;;;;;;5036441;28;19923;-82
2021/11/14 00:48:33;;;;;;;;;;;;;;;;;;5032922;28;19932;-82
2021/11/14 00:51:02;;;;;;;;;;;;;;;;;;5016587;28;19917;-82
2021/11/14 00:53:27;;;;;;;;;;;;;;;;;;5020190;28;19923;-82
2021/11/14 00:55:53;;;;;;;;;;;;;;;;;;5019601;28;20012;-82
2021/11/14 00:58:18;;;;;;;;;;;;;;;;;;5035734;28;19917;-82
2021/11/14 01:00:43;;;;;;;;;;;;;;;;;;5035672;28;19920;-82
2021/11/14 01:03:09;;;;;;;;;;;;;;;;;;5019741;28;19916;-82
2021/11/14 01:05:34;;;;;;;;;;;;;;;;;;5019515;28;19967;-81
2021/11/14 01:08:00;;;;;;;;;;;;;;;;;;5035921;28;20294;-82
2021/11/14 01:10:28;;;;;;;;;;;;;;;;;;5035613;28;19959;-82
2021/11/14 01:12:53;;;;;;;;;;;;;;;;;;5018721;28;19917;-82
2021/11/14 01:15:19;;;;;;;;;;;;;;;;;;5035674;28;20389;-82
2021/11/14 01:17:44;;;;;;;;;;;;;;;;;;5019420;28;20008;-82
2021/11/14 01:20:11;;;;;;;;;;;;;;;;;;5052436;28;20363;-82
2021/11/14 01:22:36;;;;;;;;;;;;;;;;;;5035803;28;19917;-82
2021/11/14 01:25:02;;;;;;;;;;;;;;;;;;5019146;28;20426;-82
2021/11/14 01:27:27;;;;;;;;;;;;;;;;;;5051894;28;19917;-83
2021/11/14 01:29:52;;;;;;;;;;;;;;;;;;5035142;28;20680;-82
2021/11/14 01:32:18;;;;;;;;;;;;;;;;;;5019115;28;20260;-82
2021/11/14 01:34:43;;;;;;;;;;;;;;;;;;5018059;28;20000;-82
2021/11/14 01:37:08;;;;;;;;;;;;;;;;;;5035333;28;19921;-82
2021/11/14 01:39:34;;;;;;;;;;;;;;;;;;5035243;28;19912;-82
2021/11/14 01:41:59;;;;;;;;;;;;;;;;;;5018770;28;19952;-83
2021/11/14 01:44:24;;;;;;;;;;;;;;;;;;5035327;28;19947;-82
2021/11/14 01:46:51;;;;;;;;;;;;;;;;;;5018751;28;20328;-82
2021/11/14 01:49:16;;;;;;;;;;;;;;;;;;5015497;28;19967;-82
2021/11/14 01:51:41;;;;;;;;;;;;;;;;;;5016522;28;19913;-83
2021/11/14 01:54:07;;;;;;;;;;;;;;;;;;5018374;28;19917;-82
2021/11/14 01:56:32;;;;;;;;;;;;;;;;;;5018585;28;19913;-82
2021/11/14 01:58:58;;;;;;;;;;;;;;;;;;5051079;28;19927;-82
2021/11/14 02:01:28;;;;;;;;;;;;;;;;;;5018312;28;19921;-82
2021/11/14 02:03:55;;;;;;;;;;;;;;;;;;5034905;28;19917;-82
2021/11/14 02:06:20;;;;;;;;;;;;;;;;;;5018148;28;20455;-82
2021/11/14 02:08:46;;;;;;;;;;;;;;;;;;5051440;28;19917;-82
2021/11/14 02:11:14;;;;;;;;;;;;;;;;;;5018281;28;19928;-82
2021/11/14 02:13:39;;;;;;;;;;;;;;;;;;5018291;28;19917;-82
2021/11/14 02:16:05;;;;;;;;;;;;;;;;;;5018103;28;20390;-82
2021/11/14 02:18:30;;;;;;;;;;;;;;;;;;5034728;28;19917;-82
2021/11/14 02:20:55;;;;;;;;;;;;;;;;;;5035058;28;20262;-82
2021/11/14 02:23:22;;;;;;;;;;;;;;;;;;5034315;28;19948;-82
2021/11/14 02:25:48;;;;;;;;;;;;;;;;;;5034943;28;19920;-82
2021/11/14 02:28:13;;;;;;;;;;;;;;;;;;5034397;28;19917;-82
2021/11/14 02:30:39;;;;;;;;;;;;;;;;;;5034343;28;20325;-82
2021/11/14 02:33:04;;;;;;;;;;;;;;;;;;5017997;28;20282;-82
2021/11/14 02:35:31;;;;;;;;;;;;;;;;;;5017890;28;20301;-82
2021/11/14 02:37:56;;;;;;;;;;;;;;;;;;5034306;28;19917;-82
2021/11/14 02:40:22;;;;;;;;;;;;;;;;;;5017899;28;19919;-82
2021/11/14 02:42:47;;;;;;;;;;;;;;;;;;5050567;28;20005;-82
2021/11/14 02:45:12;;;;;;;;;;;;;;;;;;5034223;28;19917;-82
2021/11/14 02:47:38;;;;;;;;;;;;;;;;;;5014173;28;20283;-82
2021/11/14 02:50:05;;;;;;;;;;;;;;;;;;5014537;28;20381;-82
2021/11/14 02:52:30;;;;;;;;;;;;;;;;;;5022030;28;20011;-82
2021/11/14 02:54:55;;;;;;;;;;;;;;;;;;5034183;28;19991;-82
2021/11/14 02:57:21;;;;;;;;;;;;;;;;;;5034176;28;20007;-82
2021/11/14 02:59:47;;;;;;;;;;;;;;;;;;5033730;28;20003;-82
2021/11/14 03:02:12;;;;;;;;;;;;;;;;;;5017793;28;20003;-82
2021/11/14 03:04:37;;;;;;;;;;;;;;;;;;5034073;28;20363;-82
2021/11/14 03:07:03;;;;;;;;;;;;;;;;;;5017673;28;19912;-82
2021/11/14 03:09:28;;;;;;;;;;;;;;;;;;5034318;28;20378;-82
2021/11/14 03:11:55;;;;;;;;;;;;;;;;;;5017566;28;19921;-82
2021/11/14 03:14:20;;;;;;;;;;;;;;;;;;5017483;28;19913;-82
2021/11/14 03:16:45;;;;;;;;;;;;;;;;;;5017407;28;19923;-82
2021/11/14 03:19:11;;;;;;;;;;;;;;;;;;5017326;28;19979;-82
2021/11/14 03:21:37;;;;;;;;;;;;;;;;;;5033953;28;19916;-81
2021/11/14 03:24:02;;;;;;;;;;;;;;;;;;5033669;28;19919;-82
2021/11/14 03:26:27;;;;;;;;;;;;;;;;;;5034251;28;19959;-82
2021/11/14 03:28:54;;;;;;;;;;;;;;;;;;5016933;28;19917;-82
2021/11/14 03:31:19;;;;;;;;;;;;;;;;;;5050754;28;19923;-82
2021/11/14 03:33:44;;;;;;;;;;;;;;;;;;5017446;28;19912;-81
2021/11/14 03:36:11;;;;;;;;;;;;;;;;;;5016945;28;19920;-82
2021/11/14 03:38:37;;;;;;;;;;;;;;;;;;5034283;28;19916;-81
2021/11/14 03:41:03;;;;;;;;;;;;;;;;;;5033802;28;19913;-82
2021/11/14 03:43:28;;;;;;;;;;;;;;;;;;5017235;28;19917;-82
2021/11/14 03:45:54;;;;;;;;;;;;;;;;;;5050185;28;20389;-82
2021/11/14 03:48:19;;;;;;;;;;;;;;;;;;5030424;28;19918;-82
2021/11/14 03:50:44;;;;;;;;;;;;;;;;;;5013337;28;19913;-82
2021/11/14 03:53:10;;;;;;;;;;;;;;;;;;5013593;28;19914;-81
2021/11/14 03:55:35;;;;;;;;;;;;;;;;;;5014190;28;19913;-82
2021/11/14 03:58:01;;;;;;;;;;;;;;;;;;5022560;28;19913;-82
2021/11/14 04:00:27;;;;;;;;;;;;;;;;;;5033380;28;19917;-81
2021/11/14 04:02:53;;;;;;;;;;;;;;;;;;5034046;28;20375;-82
2021/11/14 04:05:19;;;;;;;;;;;;;;;;;;5033400;28;19924;-82
2021/11/14 04:07:45;;;;;;;;;;;;;;;;;;5050374;28;19920;-81
2021/11/14 04:10:10;;;;;;;;;;;;;;;;;;5033834;28;19917;-82
2021/11/14 04:12:38;;;;;;;;;;;;;;;;;;5020371;28;19913;-82
2021/11/14 04:15:04;;;;;;;;;;;;;;;;;;5037147;28;20366;-82
2021/11/14 04:17:29;;;;;;;;;;;;;;;;;;5020548;28;19990;-82
2021/11/14 04:19:55;;;;;;;;;;;;;;;;;;5036591;28;20387;-82
2021/11/14 04:22:20;;;;;;;;;;;;;;;;;;5020512;28;19920;-82
2021/11/14 04:24:45;;;;;;;;;;;;;;;;;;5020160;28;19919;-82
2021/11/14 04:27:10;;;;;;;;;;;;;;;;;;5020196;28;19913;-82
2021/11/14 04:29:36;;;;;;;;;;;;;;;;;;5020091;28;20252;-82
2021/11/14 04:32:01;;;;;;;;;;;;;;;;;;5020296;28;19913;-82
2021/11/14 04:34:26;;;;;;;;;;;;;;;;;;5052963;28;20045;-82
2021/11/14 04:36:52;;;;;;;;;;;;;;;;;;5036773;28;20385;-82
2021/11/14 04:39:17;;;;;;;;;;;;;;;;;;5053612;28;19916;-82
2021/11/14 04:41:43;;;;;;;;;;;;;;;;;;5052904;28;19913;-82
2021/11/14 04:44:10;;;;;;;;;;;;;;;;;;5036131;28;20421;-82
2021/11/14 04:46:35;;;;;;;;;;;;;;;;;;5019315;28;19971;-82
2021/11/14 04:49:01;;;;;;;;;;;;;;;;;;5032842;28;19921;-83
2021/11/14 04:51:26;;;;;;;;;;;;;;;;;;5016641;28;19921;-82
2021/11/14 04:53:51;;;;;;;;;;;;;;;;;;5036847;28;19917;-82
2021/11/14 04:56:17;;;;;;;;;;;;;;;;;;5019865;28;19917;-82
2021/11/14 04:58:42;;;;;;;;;;;;;;;;;;5029994;28;19921;-81
2021/11/14 05:01:07;;;;;;;;;;;;;;;;;;5032557;28;19923;-82
2021/11/14 05:03:32;;;;;;;;;;;;;;;;;;5016030;28;19956;-81
2021/11/14 05:05:58;;;;;;;;;;;;;;;;;;5016033;28;20012;-82
2021/11/14 05:08:24;;;;;;;;;;;;;;;;;;5032292;28;20379;-82
2021/11/14 05:10:50;;;;;;;;;;;;;;;;;;5032536;28;19924;-81
2021/11/14 05:13:15;;;;;;;;;;;;;;;;;;5016087;28;19913;-81
2021/11/14 05:15:41;;;;;;;;;;;;;;;;;;5015660;28;20268;-82
2021/11/14 05:18:06;;;;;;;;;;;;;;;;;;5016082;28;19944;-82
2021/11/14 05:20:32;;;;;;;;;;;;;;;;;;5032085;28;19913;-81
2021/11/14 05:22:57;;;;;;;;;;;;;;;;;;5015648;28;19917;-82
2021/11/14 05:25:22;;;;;;;;;;;;;;;;;;5032787;28;20382;-82
2021/11/14 05:27:47;;;;;;;;;;;;;;;;;;5032167;28;19917;-82
2021/11/14 05:30:13;;;;;;;;;;;;;;;;;;5015411;28;19917;-82
2021/11/14 05:32:38;;;;;;;;;;;;;;;;;;5031995;28;19924;-84
2021/11/14 05:35:04;;;;;;;;;;;;;;;;;;5015727;28;20449;-84
2021/11/14 05:37:29;;;;;;;;;;;;;;;;;;5015548;28;19913;-84
2021/11/14 05:39:55;;;;;;;;;;;;;;;;;;5015801;28;19913;-84
2021/11/14 05:42:20;;;;;;;;;;;;;;;;;;5032350;28;20046;-84
2021/11/14 05:44:45;;;;;;;;;;;;;;;;;;5015386;28;19920;-84
2021/11/14 05:47:10;;;;;;;;;;;;;;;;;;5018648;28;20027;-84
2021/11/14 05:49:36;;;;;;;;;;;;;;;;;;5051964;28;19917;-84
2021/11/14 05:52:02;;;;;;;;;;;;;;;;;;5015600;28;19917;-84
2021/11/14 05:54:27;;;;;;;;;;;;;;;;;;5015716;28;20390;-84
2021/11/14 05:56:53;;;;;;;;;;;;;;;;;;5033891;28;19920;-84
2021/11/14 06:01:57;;;;;;;;;;;;;;;;;;5051744;28;19923;-83
2021/11/14 06:07:27;;;;;;;;;;;;;;;;;;5038654;28;20011;-84
2021/11/14 06:09:52;;;;;;;;;;;;;;;;;;5018562;28;19913;-84
2021/11/14 06:12:18;;;;;;;;;;;;;;;;;;5031472;28;19920;-84
2021/11/14 06:14:43;;;;;;;;;;;;;;;;;;5047757;28;20367;-84
2021/11/14 06:17:08;;;;;;;;;;;;;;;;;;5047948;28;19925;-84
2021/11/14 06:19:34;;;;;;;;;;;;;;;;;;5048037;28;19922;-84
2021/11/14 06:22:00;;;;;;;;;;;;;;;;;;5047466;28;19948;-84
2021/11/14 06:24:26;;;;;;;;;;;;;;;;;;5048056;28;20375;-84
2021/11/14 06:26:52;;;;;;;;;;;;;;;;;;5048091;28;19920;-84
2021/11/14 06:29:17;;;;;;;;;;;;;;;;;;5047121;28;19917;-84
2021/11/14 06:31:42;;;;;;;;;;;;;;;;;;5048111;28;19919;-84
2021/11/14 06:34:08;;;;;;;;;;;;;;;;;;5047970;28;19916;-84
2021/11/14 06:36:34;;;;;;;;;;;;;;;;;;5047952;28;19917;-84
2021/11/14 06:39:00;;;;;;;;;;;;;;;;;;5047630;28;19953;-84
2021/11/14 06:41:25;;;;;;;;;;;;;;;;;;5047703;28;19952;-84
2021/11/14 06:43:51;;;;;;;;;;;;;;;;;;5047510;28;19921;-86
2021/11/14 06:46:20;;;;;;;;;;;;;;;;;;5044612;28;19917;-86
2021/11/14 06:48:45;;;;;;;;;;;;;;;;;;5015243;28;19924;-85
2021/11/14 06:51:11;;;;;;;;;;;;;;;;;;5015191;28;19912;-85
2021/11/14 06:53:39;;;;;;;;;;;;;;;;;;5015167;28;19913;-90
2021/11/14 06:56:04;;;;;;;;;;;;;;;;;;5015139;28;19924;-86
2021/11/14 06:58:29;;;;;;;;;;;;;;;;;;5015577;28;20003;-88
2021/11/14 07:00:55;;;;;;;;;;;;;;;;;;5013236;28;19917;-88
2021/11/14 07:03:26;;;;;;;;;;;;;;;;;;5034228;28;19921;-90
2021/11/14 07:05:54;;;;;;;;;;;;;;;;;;5018888;28;19982;-87
2021/11/14 07:08:21;;;;;;;;;;;;;;;;;;5018656;28;19989;-88
2021/11/14 07:10:46;;;;;;;;;;;;;;;;;;5018782;28;19909;-89
2021/11/14 07:13:11;;;;;;;;;;;;;;;;;;5018142;28;20378;-87
2021/11/14 07:15:37;;;;;;;;;;;;;;;;;;5018360;28;19947;-87
2021/11/14 07:18:03;;;;;;;;;;;;;;;;;;5018229;28;20289;-86
2021/11/14 07:20:31;;;;;;;;;;;;;;;;;;5017256;28;19960;-87
2021/11/14 07:22:58;;;;;;;;;;;;;;;;;;5017508;28;19913;-89
2021/11/14 07:25:23;;;;;;;;;;;;;;;;;;5051702;28;19912;-90
2021/11/14 07:27:49;;;;;;;;;;;;;;;;;;5017681;28;19943;-87
2021/11/14 07:30:16;;;;;;;;;;;;;;;;;;5030033;28;20445;-85
2021/11/14 07:32:41;;;;;;;;;;;;;;;;;;5039470;28;19921;-85
2021/11/14 07:35:08;;;;;;;;;;;;;;;;;;5057929;28;20037;-85
2021/11/14 07:37:35;;;;;;;;;;;;;;;;;;5041969;28;19916;-84
2021/11/14 07:40:02;;;;;;;;;;;;;;;;;;5041808;28;19912;-87
2021/11/14 07:42:29;;;;;;;;;;;;;;;;;;5041383;28;20010;-88
2021/11/14 07:44:55;;;;;;;;;;;;;;;;;;5029505;28;19913;-92
2021/11/14 07:47:20;;;;;;;;;;;;;;;;;;5022680;28;19920;-91
2021/11/14 07:49:47;;;;;;;;;;;;;;;;;;5038406;28;19913;-87
2021/11/14 07:52:12;;;;;;;;;;;;;;;;;;5022054;28;19913;-87
2021/11/14 07:54:38;;;;;;;;;;;;;;;;;;5018267;28;19913;-89
2021/11/14 07:57:04;;;;;;;;;;;;;;;;;;5017533;28;19921;-86
2021/11/14 07:59:31;;;;;;;;;;;;;;;;;;5017571;28;19917;-85
2021/11/14 08:01:57;;;;;;;;;;;;;;;;;;5020331;28;19917;-82
2021/11/14 08:04:22;;;;;;;;;;;;;;;;;;5020400;28;20286;-83
2021/11/14 08:06:47;;;;;;;;;;;;;;;;;;5037519;28;19920;-82
2021/11/14 08:09:13;;;;;;;;;;;;;;;;;;5038064;28;19917;-92
2021/11/14 08:11:39;;;;;;;;;;;;;;;;;;5021850;28;19923;-92
2021/11/14 08:14:05;;;;;;;;;;;;;;;;;;5021442;28;19917;-87
2021/11/14 08:16:32;;;;;;;;;;;;;;;;;;5037357;28;19919;-85
2021/11/14 08:18:59;;;;;;;;;;;;;;;;;;5054168;28;20317;-87
2021/11/14 08:21:24;;;;;;;;;;;;;;;;;;5021437;28;19917;-87
2021/11/14 08:23:53;;;;;;;;;;;;;;;;;;5054380;28;20260;-86
2021/11/14 08:26:18;;;;;;;;;;;;;;;;;;5037119;28;19919;-87
2021/11/14 08:28:43;;;;;;;;;;;;;;;;;;5020723;28;19925;-87
2021/11/14 08:31:10;;;;;;;;;;;;;;;;;;5021018;28;19982;-85
2021/11/14 08:33:36;;;;;;;;;;;;;;;;;;5020709;28;20034;-88
2021/11/14 08:36:03;;;;;;;;;;;;;;;;;;5054405;28;20364;-88
2021/11/14 08:38:30;;;;;;;;;;;;;;;;;;5054165;28;19948;-88
2021/11/14 08:40:56;;;;;;;;;;;;;;;;;;5053464;28;19971;-87
2021/11/14 08:43:28;;;;;;;;;;;;;;;;;;5053822;28;19919;-87
2021/11/14 08:45:54;;;;;;;;;;;;;;;;;;5053024;28;19913;-87
2021/11/14 08:48:20;;;;;;;;;;;;;;;;;;5024788;28;19920;-87
2021/11/14 08:50:48;;;;;;;;;;;;;;;;;;5057191;28;19912;-86
2021/11/14 08:53:13;;;;;;;;;;;;;;;;;;5040309;28;19912;-87
2021/11/14 08:55:40;;;;;;;;;;;;;;;;;;5053396;28;19947;-87
2021/11/14 08:58:06;;;;;;;;;;;;;;;;;;5053160;28;19920;-87
2021/11/14 09:00:33;;;;;;;;;;;;;;;;;;5053055;28;19920;-87
2021/11/14 09:02:59;;;;;;;;;;;;;;;;;;5020064;28;20466;-87
2021/11/14 09:05:25;;;;;;;;;;;;;;;;;;5036665;28;19955;-86
2021/11/14 09:07:51;;;;;;;;;;;;;;;;;;5035899;28;20460;-87
2021/11/14 09:10:17;;;;;;;;;;;;;;;;;;5036512;28;19960;-87
2021/11/14 09:12:44;;;;;;;;;;;;;;;;;;5036468;28;20290;-87
2021/11/14 09:15:11;;;;;;;;;;;;;;;;;;5036830;28;19944;-87
2021/11/14 09:17:38;;;;;;;;;;;;;;;;;;5035539;28;20402;-87
2021/11/14 09:20:06;;;;;;;;;;;;;;;;;;5036000;28;19913;-85
2021/11/14 09:22:31;;;;;;;;;;;;;;;;;;5035026;28;19917;-84
2021/11/14 09:24:56;;;;;;;;;;;;;;;;;;5035545;28;20138;-83
2021/11/14 09:27:22;;;;;;;;;;;;;;;;;;5031545;28;19917;-84
2021/11/14 09:29:47;;;;;;;;;;;;;;;;;;5048665;28;19925;-84
2021/11/14 09:32:13;;;;;;;;;;;;;;;;;;5048853;28;19913;-84
2021/11/14 09:34:39;;;;;;;;;;;;;;;;;;5049085;28;19960;-84
2021/11/14 09:37:04;;;;;;;;;;;;;;;;;;5048444;28;19917;-84
2021/11/14 09:39:31;;;;;;;;;;;;;;;;;;5049066;28;19928;-84
2021/11/14 09:41:56;;;;;;;;;;;;;;;;;;5048842;28;19921;-84
2021/11/14 09:44:21;;;;;;;;;;;;;;;;;;5048570;28;19920;-84
2021/11/14 09:46:56;;;;;;;;;;;;;;;;;;5041093;28;19923;-85
2021/11/14 09:49:22;;;;;;;;;;;;;;;;;;5015437;28;19919;-84
2021/11/14 09:51:48;;;;;;;;;;;;;;;;;;5031611;28;20306;-85
2021/11/14 09:54:14;;;;;;;;;;;;;;;;;;5015585;28;19971;-85
2021/11/14 09:56:39;;;;;;;;;;;;;;;;;;5031540;28;19921;-85
2021/11/14 09:59:04;;;;;;;;;;;;;;;;;;5019407;28;20381;-85
2021/11/14 10:01:30;;;;;;;;;;;;;;;;;;5018399;28;20379;-85
2021/11/14 10:03:55;;;;;;;;;;;;;;;;;;5034244;28;19993;-85
2021/11/14 10:06:21;;;;;;;;;;;;;;;;;;5034691;28;20366;-84
2021/11/14 10:08:47;;;;;;;;;;;;;;;;;;5018733;28;20390;-85
2021/11/14 10:11:13;;;;;;;;;;;;;;;;;;5018481;28;20286;-84
2021/11/14 10:13:39;;;;;;;;;;;;;;;;;;5034594;28;19913;-85
2021/11/14 10:16:08;;;;;;;;;;;;;;;;;;5035335;28;19923;-85
2021/11/14 10:18:33;;;;;;;;;;;;;;;;;;5051206;28;20026;-81
2021/11/14 10:21:02;;;;;;;;;;;;;;;;;;5034764;28;19983;-84
2021/11/14 10:23:32;;;;;;;;;;;;;;;;;;5018801;28;20359;-85
2021/11/14 10:25:58;;;;;;;;;;;;;;;;;;5018450;28;19913;-85
2021/11/14 10:28:27;;;;;;;;;;;;;;;;;;5018387;28;19917;-85
2021/11/14 10:30:52;;;;;;;;;;;;;;;;;;5018185;28;20081;-84
2021/11/14 10:33:19;;;;;;;;;;;;;;;;;;5050769;28;20443;-85
2021/11/14 10:35:45;;;;;;;;;;;;;;;;;;5034604;28;19917;-84
2021/11/14 10:38:12;;;;;;;;;;;;;;;;;;5051169;28;20009;-84
2021/11/14 10:40:39;;;;;;;;;;;;;;;;;;5018034;28;20476;-84
2021/11/14 10:43:04;;;;;;;;;;;;;;;;;;5017864;28;19917;-84
2021/11/14 10:45:30;;;;;;;;;;;;;;;;;;5050735;28;19913;-85
2021/11/14 10:47:56;;;;;;;;;;;;;;;;;;5014629;28;19913;-84
2021/11/14 10:50:24;;;;;;;;;;;;;;;;;;5014089;28;19920;-85
2021/11/14 10:52:51;;;;;;;;;;;;;;;;;;5031425;28;19917;-85
2021/11/14 10:55:19;;;;;;;;;;;;;;;;;;5014808;28;19921;-90
2021/11/14 10:57:46;;;;;;;;;;;;;;;;;;5024414;28;19921;-90
2021/11/14 11:00:12;;;;;;;;;;;;;;;;;;5019229;28;20023;-90
2021/11/14 11:02:43;;;;;;;;;;;;;;;;;;5019108;28;20389;-90
2021/11/14 11:05:30;;;;;;;;;;;;;;;;;;5018916;28;19924;-90
2021/11/14 11:07:59;;;;;;;;;;;;;;;;;;5036922;28;19995;-90
2021/11/14 11:10:35;;;;;;;;;;;;;;;;;;5023079;28;19924;-90
2021/11/14 11:13:04;;;;;;;;;;;;;;;;;;5039426;28;20345;-90
2021/11/14 11:15:50;;;;;;;;;;;;;;;;;;5023188;28;19917;-90
2021/11/14 11:18:18;;;;;;;;;;;;;;;;;;5039120;28;19912;-90
2021/11/14 11:20:49;;;;;;;;;;;;;;;;;;5022730;28;20363;-88
2021/11/14 11:23:15;;;;;;;;;;;;;;;;;;5022636;28;20393;-90
2021/11/14 11:25:48;;;;;;;;;;;;;;;;;;5023007;28;19959;-91
2021/11/14 11:28:20;;;;;;;;;;;;;;;;;;5022591;28;19917;-90
2021/11/14 11:30:56;;;;;;;;;;;;;;;;;;5022668;28;20318;-90
2021/11/14 11:33:22;;;;;;;;;;;;;;;;;;5022534;28;19920;-90
2021/11/14 11:35:50;;;;;;;;;;;;;;;;;;5022585;28;19913;-88
2021/11/14 11:38:19;;;;;;;;;;;;;;;;;;5022442;28;19992;-89
2021/11/14 11:40:47;;;;;;;;;;;;;;;;;;5022983;28;19917;-88
2021/11/14 11:43:16;;;;;;;;;;;;;;;;;;5039294;28;19913;-89
2021/11/14 11:45:45;;;;;;;;;;;;;;;;;;5022441;28;19912;-90
2021/11/14 11:48:14;;;;;;;;;;;;;;;;;;5022110;28;19912;-88
2021/11/14 11:50:41;;;;;;;;;;;;;;;;;;5022126;28;19924;-88
2021/11/14 11:53:10;;;;;;;;;;;;;;;;;;5022200;28;20058;-89
2021/11/14 11:55:37;;;;;;;;;;;;;;;;;;5038728;28;20003;-87
2021/11/14 11:58:16;;;;;;;;;;;;;;;;;;5021738;28;19917;-88
2021/11/14 12:00:49;;;;;;;;;;;;;;;;;;5021901;28;19917;-88
2021/11/14 12:03:30;;;;;;;;;;;;;;;;;;5021929;28;19920;-89
2021/11/14 12:06:02;;;;;;;;;;;;;;;;;;5022153;28;19912;-89
2021/11/14 12:08:36;;;;;;;;;;;;;;;;;;5021901;28;19924;-88
2021/11/14 12:11:05;;;;;;;;;;;;;;;;;;5038507;28;20282;-89
2021/11/14 12:13:31;;;;;;;;;;;;;;;;;;5055120;28;20363;-87
2021/11/14 12:16:00;;;;;;;;;;;;;;;;;;5022457;28;19913;-88
2021/11/14 12:18:36;;;;;;;;;;;;;;;;;;5021713;28;19913;-88
2021/11/14 12:21:11;;;;;;;;;;;;;;;;;;5021923;28;19912;-88
2021/11/14 12:23:38;;;;;;;;;;;;;;;;;;5018715;28;19917;-88
2021/11/14 12:26:10;;;;;;;;;;;;;;;;;;5034901;28;19979;-88
2021/11/14 12:28:38;;;;;;;;;;;;;;;;;;5034920;28;20264;-88
2021/11/14 12:31:11;;;;;;;;;;;;;;;;;;5017579;28;19935;-88
2021/11/14 12:33:47;;;;;;;;;;;;;;;;;;5034903;28;19935;-88
2021/11/14 12:36:33;;;;;;;;;;;;;;;;;;5034900;28;19916;-89
2021/11/14 12:41:58;;;;;;;;;;;;;;;;;;5034301;28;20406;-88
2021/11/14 12:44:35;;;;;;;;;;;;;;;;;;5035934;28;20371;-87
2021/11/14 12:47:01;;;;;;;;;;;;;;;;;;5054384;28;19997;-88
2021/11/14 12:49:43;;;;;;;;;;;;;;;;;;5021351;28;19913;-89
2021/11/14 12:52:20;;;;;;;;;;;;;;;;;;5037575;28;20386;-88
2021/11/14 12:54:51;;;;;;;;;;;;;;;;;;5020640;28;19951;-87
2021/11/14 12:57:18;;;;;;;;;;;;;;;;;;5017637;28;19913;-87
2021/11/14 12:59:44;;;;;;;;;;;;;;;;;;5016943;28;19913;-87
2021/11/14 13:02:17;;;;;;;;;;;;;;;;;;5001006;28;20393;-86
2021/11/14 13:04:45;;;;;;;;;;;;;;;;;;5017596;28;20003;-87
2021/11/14 13:07:20;;;;;;;;;;;;;;;;;;5017414;28;20044;-86
2021/11/14 13:09:47;;;;;;;;;;;;;;;;;;5033620;28;19928;-85
2021/11/14 13:12:19;;;;;;;;;;;;;;;;;;5016830;28;19913;-84
2021/11/14 13:14:56;;;;;;;;;;;;;;;;;;5017128;28;19917;-84
2021/11/14 13:17:21;;;;;;;;;;;;;;;;;;5001831;28;19917;-85
2021/11/14 13:19:47;;;;;;;;;;;;;;;;;;5036266;28;20293;-85
2021/11/14 13:22:15;;;;;;;;;;;;;;;;;;5052583;28;19916;-85
2021/11/14 13:24:47;;;;;;;;;;;;;;;;;;5053540;28;19938;-86
2021/11/14 13:27:12;;;;;;;;;;;;;;;;;;5052136;28;20023;-85
2021/11/14 13:29:41;;;;;;;;;;;;;;;;;;5018715;28;20007;-85
2021/11/14 13:32:12;;;;;;;;;;;;;;;;;;5035852;28;19923;-87
2021/11/14 13:34:38;;;;;;;;;;;;;;;;;;5056321;28;19919;-86
2021/11/14 13:37:13;;;;;;;;;;;;;;;;;;5029966;28;20349;-88
2021/11/14 13:39:55;;;;;;;;;;;;;;;;;;5020436;28;19912;-87
2021/11/14 13:42:57;;;;;;;;;;;;;;;;;;5033475;28;19917;-87
2021/11/14 13:45:24;;;;;;;;;;;;;;;;;;5015877;28;19920;-88
2021/11/14 13:47:50;;;;;;;;;;;;;;;;;;5016061;28;19923;-87
2021/11/14 13:50:35;;;;;;;;;;;;;;;;;;5036305;28;20007;-86
2021/11/14 13:53:07;;;;;;;;;;;;;;;;;;5052577;28;19913;-89
2021/11/14 13:55:43;;;;;;;;;;;;;;;;;;5020064;28;19919;-92
2021/11/14 13:58:11;;;;;;;;;;;;;;;;;;5053112;28;19966;-89
2021/11/14 14:00:40;;;;;;;;;;;;;;;;;;5036210;28;19913;-86
2021/11/14 14:03:16;;;;;;;;;;;;;;;;;;5052744;28;19948;-89
2021/11/14 14:05:44;;;;;;;;;;;;;;;;;;5053079;28;19919;-88
2021/11/14 14:08:09;;;;;;;;;;;;;;;;;;5036195;28;20015;-89
2021/11/14 14:10:36;;;;;;;;;;;;;;;;;;5052669;28;20008;-88
2021/11/14 14:13:04;;;;;;;;;;;;;;;;;;5038153;28;19935;-87
2021/11/14 14:15:34;;;;;;;;;;;;;;;;;;5049247;28;20295;-91
2021/11/14 14:18:01;;;;;;;;;;;;;;;;;;5032749;28;19999;-89
2021/11/14 14:20:29;;;;;;;;;;;;;;;;;;5032453;28;20011;-88
2021/11/14 14:22:57;;;;;;;;;;;;;;;;;;5034510;28;19967;-87
2021/11/14 14:25:24;;;;;;;;;;;;;;;;;;5022152;28;20383;-86
2021/11/14 14:27:55;;;;;;;;;;;;;;;;;;5029368;28;19951;-87
2021/11/14 14:30:22;;;;;;;;;;;;;;;;;;5018970;28;19924;-84
2021/11/14 14:32:52;;;;;;;;;;;;;;;;;;5018892;28;19978;-89
2021/11/14 14:35:18;;;;;;;;;;;;;;;;;;5035836;28;20386;-89
2021/11/14 14:37:48;;;;;;;;;;;;;;;;;;5019531;28;19960;-88
2021/11/14 14:40:16;;;;;;;;;;;;;;;;;;5035718;28;19999;-88
2021/11/14 14:42:52;;;;;;;;;;;;;;;;;;5018203;28;19956;-87
2021/11/14 14:45:24;;;;;;;;;;;;;;;;;;5052180;28;19913;-88
2021/11/14 14:47:54;;;;;;;;;;;;;;;;;;5019570;28;19916;-87
2021/11/14 14:50:22;;;;;;;;;;;;;;;;;;5019390;28;19960;-87
2021/11/14 14:52:47;;;;;;;;;;;;;;;;;;5019355;28;20140;-86
2021/11/14 14:55:13;;;;;;;;;;;;;;;;;;5018997;28;19982;-87
2021/11/14 14:57:38;;;;;;;;;;;;;;;;;;5018382;28;20366;-88
2021/11/14 15:00:04;;;;;;;;;;;;;;;;;;5051088;28;19921;-86
2021/11/14 15:02:29;;;;;;;;;;;;;;;;;;5018160;28;19970;-86
2021/11/14 15:04:57;;;;;;;;;;;;;;;;;;5018610;28;20038;-87
2021/11/14 15:07:23;;;;;;;;;;;;;;;;;;5018471;28;19913;-86
2021/11/14 15:09:53;;;;;;;;;;;;;;;;;;5017739;28;20026;-86
2021/11/14 15:12:23;;;;;;;;;;;;;;;;;;5051717;28;20007;-88
2021/11/14 15:14:49;;;;;;;;;;;;;;;;;;5051915;28;19916;-88
2021/11/14 15:17:15;;;;;;;;;;;;;;;;;;5052144;28;19920;-89
2021/11/14 15:19:59;;;;;;;;;;;;;;;;;;5035558;28;19919;-90
2021/11/14 15:22:46;;;;;;;;;;;;;;;;;;5035304;28;19960;-90
2021/11/14 15:25:13;;;;;;;;;;;;;;;;;;5035038;28;19932;-90
2021/11/14 15:27:43;;;;;;;;;;;;;;;;;;5051784;28;20325;-88
2021/11/14 15:30:10;;;;;;;;;;;;;;;;;;5051528;28;19920;-88
2021/11/14 15:32:38;;;;;;;;;;;;;;;;;;5052023;28;20023;-90
2021/11/14 15:35:05;;;;;;;;;;;;;;;;;;5052193;28;19913;-90
2021/11/14 15:37:33;;;;;;;;;;;;;;;;;;5035114;28;19912;-90
2021/11/14 15:40:00;;;;;;;;;;;;;;;;;;5051556;28;19917;-88
2021/11/14 15:42:29;;;;;;;;;;;;;;;;;;5018542;28;20515;-88
2021/11/14 15:44:54;;;;;;;;;;;;;;;;;;5051753;28;20031;-88
2021/11/14 15:47:21;;;;;;;;;;;;;;;;;;5051650;28;19953;-87
2021/11/14 15:49:49;;;;;;;;;;;;;;;;;;5018736;28;19962;-90
2021/11/14 15:52:14;;;;;;;;;;;;;;;;;;5010837;28;19921;-85
2021/11/14 15:54:41;;;;;;;;;;;;;;;;;;5016220;28;19913;-87
2021/11/14 15:57:09;;;;;;;;;;;;;;;;;;5023047;28;20004;-89
2021/11/14 15:59:50;;;;;;;;;;;;;;;;;;5021936;28;19921;-89
2021/11/14 16:02:19;;;;;;;;;;;;;;;;;;5052072;28;20375;-89
2021/11/14 16:04:49;;;;;;;;;;;;;;;;;;5052562;28;19924;-89
2021/11/14 16:07:18;;;;;;;;;;;;;;;;;;5018984;28;19979;-90
2021/11/14 16:09:49;;;;;;;;;;;;;;;;;;5018853;28;19920;-91
2021/11/14 16:12:16;;;;;;;;;;;;;;;;;;5051722;28;19928;-87
2021/11/14 16:14:41;;;;;;;;;;;;;;;;;;5051473;28;19913;-88
2021/11/14 16:17:06;;;;;;;;;;;;;;;;;;5051313;28;19935;-88
2021/11/14 16:19:35;;;;;;;;;;;;;;;;;;5051879;28;19919;-89
2021/11/14 16:22:00;;;;;;;;;;;;;;;;;;5051859;28;19913;-89
2021/11/14 16:24:29;;;;;;;;;;;;;;;;;;5018565;28;19923;-89
2021/11/14 16:26:55;;;;;;;;;;;;;;;;;;5018165;28;19913;-88
2021/11/14 16:29:25;;;;;;;;;;;;;;;;;;5017916;28;19962;-87
2021/11/14 16:31:52;;;;;;;;;;;;;;;;;;5018646;28;19917;-86
2021/11/14 16:34:22;;;;;;;;;;;;;;;;;;5017771;28;19917;-87
2021/11/14 16:36:47;;;;;;;;;;;;;;;;;;5018064;28;19913;-87
2021/11/14 16:39:16;;;;;;;;;;;;;;;;;;5017783;28;19959;-87
2021/11/14 16:41:41;;;;;;;;;;;;;;;;;;5018051;28;19921;-88
2021/11/14 16:44:08;;;;;;;;;;;;;;;;;;5018078;28;19917;-88
2021/11/14 16:46:37;;;;;;;;;;;;;;;;;;5030090;28;19916;-87
2021/11/14 16:49:03;;;;;;;;;;;;;;;;;;5021526;28;19920;-88
2021/11/14 16:51:32;;;;;;;;;;;;;;;;;;5054327;28;19946;-87
2021/11/14 16:53:59;;;;;;;;;;;;;;;;;;5053896;28;20385;-87